sensor_id;sensor_type;location;lat;lon;timestamp;temperature;humidity
23403;DHT22;11874;48.228;11.684;2022-10-16T00:00:57;15.80;99.90
23403;DHT22;11874;48.228;11.684;2022-10-16T00:03:25;15.70;99.90
23403;DHT22;11874;48.228;11.684;2022-10-16T00:05:59;15.80;99.90
23403;DHT22;11874;48.228;11.684;2022-10-16T00:08:29;15.70;99.90
23403;DHT22;11874;48.228;11.684;2022-10-16T00:11:01;15.70;99.90
23403;DHT22;11874;48.228;11.684;2022-10-16T00:13:29;15.70;99.90
23403;DHT22;11874;48.228;11.684;2022-10-16T00:15:59;15.70;99.90
23403;DHT22;11874;48.228;11.684;2022-10-16T00:18:27;15.70;99.90
23403;DHT22;11874;48.228;11.684;2022-10-16T00:20:55;15.80;99.90
23403;DHT22;11874;48.228;11.684;2022-10-16T00:23:23;15.60;99.90
23403;DHT22;11874;48.228;11.684;2022-10-16T00:25:56;15.70;99.90
23403;DHT22;11874;48.228;11.684;2022-10-16T00:28:25;15.70;99.90
23403;DHT22;11874;48.228;11.684;2022-10-16T00:30:53;15.60;99.90
23403;DHT22;11874;48.228;11.684;2022-10-16T00:33:21;15.70;99.90
23403;DHT22;11874;48.228;11.684;2022-10-16T00:35:49;15.60;99.90
23403;DHT22;11874;48.228;11.684;2022-10-16T00:38:17;15.60;99.90
23403;DHT22;11874;48.228;11.684;2022-10-16T00:40:45;15.60;99.90
23403;DHT22;11874;48.228;11.684;2022-10-16T00:43:34;15.60;99.90
23403;DHT22;11874;48.228;11.684;2022-10-16T00:46:05;15.50;99.90
23403;DHT22;11874;48.228;11.684;2022-10-16T00:48:33;15.50;99.90
23403;DHT22;11874;48.228;11.684;2022-10-16T00:51:01;15.50;99.90
23403;DHT22;11874;48.228;11.684;2022-10-16T00:53:29;15.50;99.90
23403;DHT22;11874;48.228;11.684;2022-10-16T00:55:58;15.50;99.90
23403;DHT22;11874;48.228;11.684;2022-10-16T00:58:27;15.50;99.90
23403;DHT22;11874;48.228;11.684;2022-10-16T01:00:55;15.50;99.90
23403;DHT22;11874;48.228;11.684;2022-10-16T01:03:27;15.50;99.90
23403;DHT22;11874;48.228;11.684;2022-10-16T01:06:01;15.50;99.90
23403;DHT22;11874;48.228;11.684;2022-10-16T01:08:35;15.50;99.90
23403;DHT22;11874;48.228;11.684;2022-10-16T01:11:13;15.40;99.90
23403;DHT22;11874;48.228;11.684;2022-10-16T01:13:50;15.50;99.90
23403;DHT22;11874;48.228;11.684;2022-10-16T01:16:24;15.50;99.90
23403;DHT22;11874;48.228;11.684;2022-10-16T01:19:00;15.50;99.90
23403;DHT22;11874;48.228;11.684;2022-10-16T01:21:33;15.50;99.90
23403;DHT22;11874;48.228;11.684;2022-10-16T01:24:08;15.40;99.90
23403;DHT22;11874;48.228;11.684;2022-10-16T01:29:24;15.40;99.90
23403;DHT22;11874;48.228;11.684;2022-10-16T01:31:58;15.40;99.90
23403;DHT22;11874;48.228;11.684;2022-10-16T01:34:33;15.40;99.90
23403;DHT22;11874;48.228;11.684;2022-10-16T01:37:07;15.40;99.90
23403;DHT22;11874;48.228;11.684;2022-10-16T01:39:39;15.40;99.90
23403;DHT22;11874;48.228;11.684;2022-10-16T01:42:11;15.40;99.90
23403;DHT22;11874;48.228;11.684;2022-10-16T01:44:41;15.40;99.90
23403;DHT22;11874;48.228;11.684;2022-10-16T01:47:11;15.40;99.90
23403;DHT22;11874;48.228;11.684;2022-10-16T01:49:41;15.30;99.90
23403;DHT22;11874;48.228;11.684;2022-10-16T01:52:12;15.40;99.90
23403;DHT22;11874;48.228;11.684;2022-10-16T01:54:43;15.30;99.90
23403;DHT22;11874;48.228;11.684;2022-10-16T01:57:14;15.30;99.90
23403;DHT22;11874;48.228;11.684;2022-10-16T01:59:46;15.30;99.90
23403;DHT22;11874;48.228;11.684;2022-10-16T02:02:17;15.30;99.90
23403;DHT22;11874;48.228;11.684;2022-10-16T02:04:48;15.40;99.90
23403;DHT22;11874;48.228;11.684;2022-10-16T02:07:17;15.40;99.90
23403;DHT22;11874;48.228;11.684;2022-10-16T02:09:45;15.30;99.90
23403;DHT22;11874;48.228;11.684;2022-10-16T02:12:18;15.30;99.90
23403;DHT22;11874;48.228;11.684;2022-10-16T02:14:50;15.20;99.90
23403;DHT22;11874;48.228;11.684;2022-10-16T02:17:19;15.20;99.90
23403;DHT22;11874;48.228;11.684;2022-10-16T02:19:49;15.20;99.90
23403;DHT22;11874;48.228;11.684;2022-10-16T02:22:22;15.20;99.90
23403;DHT22;11874;48.228;11.684;2022-10-16T02:24:54;15.10;99.90
23403;DHT22;11874;48.228;11.684;2022-10-16T02:27:27;15.00;99.90
23403;DHT22;11874;48.228;11.684;2022-10-16T02:30:01;15.10;99.90
23403;DHT22;11874;48.228;11.684;2022-10-16T02:32:36;15.10;99.90
23403;DHT22;11874;48.228;11.684;2022-10-16T02:35:05;15.00;99.90
23403;DHT22;11874;48.228;11.684;2022-10-16T02:37:35;15.00;99.90
23403;DHT22;11874;48.228;11.684;2022-10-16T02:40:05;15.00;99.90
23403;DHT22;11874;48.228;11.684;2022-10-16T02:42:35;15.10;99.90
23403;DHT22;11874;48.228;11.684;2022-10-16T02:45:05;15.00;99.90
23403;DHT22;11874;48.228;11.684;2022-10-16T02:47:34;15.00;99.90
23403;DHT22;11874;48.228;11.684;2022-10-16T02:50:02;15.00;99.90
23403;DHT22;11874;48.228;11.684;2022-10-16T02:52:30;15.00;99.90
23403;DHT22;11874;48.228;11.684;2022-10-16T02:54:58;15.00;99.90
23403;DHT22;11874;48.228;11.684;2022-10-16T02:57:26;15.00;99.90
23403;DHT22;11874;48.228;11.684;2022-10-16T02:59:54;15.00;99.90
23403;DHT22;11874;48.228;11.684;2022-10-16T03:02:24;15.00;99.90
23403;DHT22;11874;48.228;11.684;2022-10-16T03:04:52;15.00;99.90
23403;DHT22;11874;48.228;11.684;2022-10-16T03:07:20;14.90;99.90
23403;DHT22;11874;48.228;11.684;2022-10-16T03:09:48;14.90;99.90
23403;DHT22;11874;48.228;11.684;2022-10-16T03:12:16;14.90;99.90
23403;DHT22;11874;48.228;11.684;2022-10-16T03:14:44;14.80;99.90
23403;DHT22;11874;48.228;11.684;2022-10-16T03:17:12;14.90;99.90
23403;DHT22;11874;48.228;11.684;2022-10-16T03:19:41;14.90;99.90
23403;DHT22;11874;48.228;11.684;2022-10-16T03:22:09;14.90;99.90
23403;DHT22;11874;48.228;11.684;2022-10-16T03:24:37;14.90;99.90
23403;DHT22;11874;48.228;11.684;2022-10-16T03:27:05;14.80;99.90
23403;DHT22;11874;48.228;11.684;2022-10-16T03:29:33;14.80;99.90
23403;DHT22;11874;48.228;11.684;2022-10-16T03:32:01;14.90;99.90
23403;DHT22;11874;48.228;11.684;2022-10-16T03:34:29;14.80;99.90
23403;DHT22;11874;48.228;11.684;2022-10-16T03:36:58;14.80;99.90
23403;DHT22;11874;48.228;11.684;2022-10-16T03:39:26;14.90;99.90
23403;DHT22;11874;48.228;11.684;2022-10-16T03:41:54;14.80;99.90
23403;DHT22;11874;48.228;11.684;2022-10-16T03:44:21;14.80;99.90
23403;DHT22;11874;48.228;11.684;2022-10-16T03:46:49;14.80;99.90
23403;DHT22;11874;48.228;11.684;2022-10-16T03:49:17;14.90;99.90
23403;DHT22;11874;48.228;11.684;2022-10-16T03:51:45;14.80;99.90
23403;DHT22;11874;48.228;11.684;2022-10-16T03:54:14;14.80;99.90
23403;DHT22;11874;48.228;11.684;2022-10-16T03:56:42;14.80;99.90
23403;DHT22;11874;48.228;11.684;2022-10-16T03:59:10;14.90;99.90
23403;DHT22;11874;48.228;11.684;2022-10-16T04:01:38;14.70;99.90
23403;DHT22;11874;48.228;11.684;2022-10-16T04:04:05;14.80;99.90
23403;DHT22;11874;48.228;11.684;2022-10-16T04:06:33;14.80;99.90
23403;DHT22;11874;48.228;11.684;2022-10-16T04:09:01;14.90;99.90
23403;DHT22;11874;48.228;11.684;2022-10-16T04:11:31;14.80;99.90
23403;DHT22;11874;48.228;11.684;2022-10-16T04:13:59;14.90;99.90
23403;DHT22;11874;48.228;11.684;2022-10-16T04:16:27;14.80;99.90
23403;DHT22;11874;48.228;11.684;2022-10-16T04:18:54;14.90;99.90
23403;DHT22;11874;48.228;11.684;2022-10-16T04:21:22;14.90;99.90
23403;DHT22;11874;48.228;11.684;2022-10-16T04:23:50;14.80;99.90
23403;DHT22;11874;48.228;11.684;2022-10-16T04:26:18;14.80;99.90
23403;DHT22;11874;48.228;11.684;2022-10-16T04:28:47;14.80;99.90
23403;DHT22;11874;48.228;11.684;2022-10-16T04:31:15;14.90;99.90
23403;DHT22;11874;48.228;11.684;2022-10-16T04:33:43;14.80;99.90
23403;DHT22;11874;48.228;11.684;2022-10-16T04:36:11;14.80;99.90
23403;DHT22;11874;48.228;11.684;2022-10-16T04:38:39;14.80;99.90
23403;DHT22;11874;48.228;11.684;2022-10-16T04:41:08;14.90;99.90
23403;DHT22;11874;48.228;11.684;2022-10-16T04:43:36;14.90;99.90
23403;DHT22;11874;48.228;11.684;2022-10-16T04:46:05;14.80;99.90
23403;DHT22;11874;48.228;11.684;2022-10-16T04:48:33;14.80;99.90
23403;DHT22;11874;48.228;11.684;2022-10-16T04:51:00;14.80;99.90
23403;DHT22;11874;48.228;11.684;2022-10-16T04:53:28;14.80;99.90
23403;DHT22;11874;48.228;11.684;2022-10-16T04:55:56;14.80;99.90
23403;DHT22;11874;48.228;11.684;2022-10-16T04:58:24;14.80;99.90
23403;DHT22;11874;48.228;11.684;2022-10-16T05:00:52;14.80;99.90
23403;DHT22;11874;48.228;11.684;2022-10-16T05:03:22;14.90;99.90
23403;DHT22;11874;48.228;11.684;2022-10-16T05:05:50;14.80;99.90
23403;DHT22;11874;48.228;11.684;2022-10-16T05:08:17;14.80;99.90
23403;DHT22;11874;48.228;11.684;2022-10-16T05:10:45;14.80;99.90
23403;DHT22;11874;48.228;11.684;2022-10-16T05:13:13;14.90;99.90
23403;DHT22;11874;48.228;11.684;2022-10-16T05:15:41;14.90;99.90
23403;DHT22;11874;48.228;11.684;2022-10-16T05:18:09;14.90;99.90
23403;DHT22;11874;48.228;11.684;2022-10-16T05:20:38;14.90;99.90
23403;DHT22;11874;48.228;11.684;2022-10-16T05:23:06;14.90;99.90
23403;DHT22;11874;48.228;11.684;2022-10-16T05:25:34;14.90;99.90
23403;DHT22;11874;48.228;11.684;2022-10-16T05:28:02;14.90;99.90
23403;DHT22;11874;48.228;11.684;2022-10-16T05:30:30;14.80;99.90
23403;DHT22;11874;48.228;11.684;2022-10-16T05:32:58;14.80;99.90
23403;DHT22;11874;48.228;11.684;2022-10-16T05:35:25;14.80;99.90
23403;DHT22;11874;48.228;11.684;2022-10-16T05:37:55;14.80;99.90
23403;DHT22;11874;48.228;11.684;2022-10-16T05:40:23;15.00;99.90
23403;DHT22;11874;48.228;11.684;2022-10-16T05:42:54;14.80;99.90
23403;DHT22;11874;48.228;11.684;2022-10-16T05:45:22;14.80;99.90
23403;DHT22;11874;48.228;11.684;2022-10-16T05:47:50;14.80;99.90
23403;DHT22;11874;48.228;11.684;2022-10-16T05:50:18;14.80;99.90
23403;DHT22;11874;48.228;11.684;2022-10-16T05:52:46;14.80;99.90
23403;DHT22;11874;48.228;11.684;2022-10-16T05:55:15;14.90;99.90
23403;DHT22;11874;48.228;11.684;2022-10-16T05:57:43;14.90;99.90
23403;DHT22;11874;48.228;11.684;2022-10-16T06:00:12;14.90;99.90
23403;DHT22;11874;48.228;11.684;2022-10-16T06:02:39;14.90;99.90
23403;DHT22;11874;48.228;11.684;2022-10-16T06:05:08;14.90;99.90
23403;DHT22;11874;48.228;11.684;2022-10-16T06:07:35;14.90;99.90
23403;DHT22;11874;48.228;11.684;2022-10-16T06:10:05;14.90;99.90
23403;DHT22;11874;48.228;11.684;2022-10-16T06:12:34;14.90;99.90
23403;DHT22;11874;48.228;11.684;2022-10-16T06:15:02;14.80;99.90
23403;DHT22;11874;48.228;11.684;2022-10-16T06:17:30;14.90;99.90
23403;DHT22;11874;48.228;11.684;2022-10-16T06:19:58;14.90;99.90
23403;DHT22;11874;48.228;11.684;2022-10-16T06:22:26;14.90;99.90
23403;DHT22;11874;48.228;11.684;2022-10-16T06:24:54;14.90;99.90
23403;DHT22;11874;48.228;11.684;2022-10-16T06:27:22;14.80;99.90
23403;DHT22;11874;48.228;11.684;2022-10-16T06:29:52;14.90;99.90
23403;DHT22;11874;48.228;11.684;2022-10-16T06:32:19;14.80;99.90
23403;DHT22;11874;48.228;11.684;2022-10-16T06:34:48;14.90;99.90
23403;DHT22;11874;48.228;11.684;2022-10-16T06:37:16;14.80;99.90
23403;DHT22;11874;48.228;11.684;2022-10-16T06:39:43;14.80;99.90
23403;DHT22;11874;48.228;11.684;2022-10-16T06:42:11;14.80;99.90
23403;DHT22;11874;48.228;11.684;2022-10-16T06:44:39;14.80;99.90
23403;DHT22;11874;48.228;11.684;2022-10-16T06:47:08;14.80;99.90
23403;DHT22;11874;48.228;11.684;2022-10-16T06:49:36;14.80;99.90
23403;DHT22;11874;48.228;11.684;2022-10-16T06:52:04;14.80;99.90
23403;DHT22;11874;48.228;11.684;2022-10-16T06:54:32;14.80;99.90
23403;DHT22;11874;48.228;11.684;2022-10-16T06:57:08;14.80;99.90
23403;DHT22;11874;48.228;11.684;2022-10-16T06:59:36;14.80;99.90
23403;DHT22;11874;48.228;11.684;2022-10-16T07:02:04;14.80;99.90
23403;DHT22;11874;48.228;11.684;2022-10-16T07:04:35;14.80;99.90
23403;DHT22;11874;48.228;11.684;2022-10-16T07:07:03;14.80;99.90
23403;DHT22;11874;48.228;11.684;2022-10-16T07:09:35;14.80;99.90
23403;DHT22;11874;48.228;11.684;2022-10-16T07:12:03;14.80;99.90
23403;DHT22;11874;48.228;11.684;2022-10-16T07:14:31;14.80;99.90
23403;DHT22;11874;48.228;11.684;2022-10-16T07:16:59;14.90;99.90
23403;DHT22;11874;48.228;11.684;2022-10-16T07:19:27;14.80;99.90
23403;DHT22;11874;48.228;11.684;2022-10-16T07:22:00;14.80;99.90
23403;DHT22;11874;48.228;11.684;2022-10-16T07:24:29;14.80;99.90
23403;DHT22;11874;48.228;11.684;2022-10-16T07:26:57;14.80;99.90
23403;DHT22;11874;48.228;11.684;2022-10-16T07:29:25;14.80;99.90
23403;DHT22;11874;48.228;11.684;2022-10-16T07:31:53;14.80;99.90
23403;DHT22;11874;48.228;11.684;2022-10-16T07:34:21;14.90;99.90
23403;DHT22;11874;48.228;11.684;2022-10-16T07:36:49;14.90;99.90
23403;DHT22;11874;48.228;11.684;2022-10-16T07:39:19;14.80;99.90
23403;DHT22;11874;48.228;11.684;2022-10-16T07:41:47;14.90;99.90
23403;DHT22;11874;48.228;11.684;2022-10-16T07:44:16;14.90;99.90
23403;DHT22;11874;48.228;11.684;2022-10-16T07:46:43;14.90;99.90
23403;DHT22;11874;48.228;11.684;2022-10-16T07:49:11;15.00;99.90
23403;DHT22;11874;48.228;11.684;2022-10-16T07:51:39;15.00;99.90
23403;DHT22;11874;48.228;11.684;2022-10-16T07:54:08;15.00;99.90
23403;DHT22;11874;48.228;11.684;2022-10-16T07:56:37;15.00;99.90
23403;DHT22;11874;48.228;11.684;2022-10-16T07:59:09;15.00;99.90
23403;DHT22;11874;48.228;11.684;2022-10-16T08:01:37;15.10;99.90
23403;DHT22;11874;48.228;11.684;2022-10-16T08:04:05;15.10;99.90
23403;DHT22;11874;48.228;11.684;2022-10-16T08:06:36;15.20;99.90
23403;DHT22;11874;48.228;11.684;2022-10-16T08:09:04;15.20;99.90
23403;DHT22;11874;48.228;11.684;2022-10-16T08:11:32;15.20;99.90
23403;DHT22;11874;48.228;11.684;2022-10-16T08:14:02;15.20;99.90
23403;DHT22;11874;48.228;11.684;2022-10-16T08:16:29;15.30;99.90
23403;DHT22;11874;48.228;11.684;2022-10-16T08:18:57;15.30;99.90
23403;DHT22;11874;48.228;11.684;2022-10-16T08:21:25;15.30;99.90
23403;DHT22;11874;48.228;11.684;2022-10-16T08:23:53;15.30;99.90
23403;DHT22;11874;48.228;11.684;2022-10-16T08:26:25;15.40;99.90
23403;DHT22;11874;48.228;11.684;2022-10-16T08:28:53;15.40;99.90
23403;DHT22;11874;48.228;11.684;2022-10-16T08:31:23;15.40;99.90
23403;DHT22;11874;48.228;11.684;2022-10-16T08:33:53;15.50;99.90
23403;DHT22;11874;48.228;11.684;2022-10-16T08:36:21;15.50;99.90
23403;DHT22;11874;48.228;11.684;2022-10-16T08:38:49;15.50;99.90
23403;DHT22;11874;48.228;11.684;2022-10-16T08:41:37;15.50;99.90
23403;DHT22;11874;48.228;11.684;2022-10-16T08:44:36;15.60;99.90
23403;DHT22;11874;48.228;11.684;2022-10-16T08:47:14;15.60;99.90
23403;DHT22;11874;48.228;11.684;2022-10-16T08:49:56;15.60;99.90
23403;DHT22;11874;48.228;11.684;2022-10-16T08:52:28;15.60;99.90
23403;DHT22;11874;48.228;11.684;2022-10-16T08:54:56;15.60;99.90
23403;DHT22;11874;48.228;11.684;2022-10-16T08:57:25;15.70;99.90
23403;DHT22;11874;48.228;11.684;2022-10-16T08:59:54;15.70;99.90
23403;DHT22;11874;48.228;11.684;2022-10-16T09:02:31;15.80;99.90
23403;DHT22;11874;48.228;11.684;2022-10-16T09:05:29;15.80;99.90
23403;DHT22;11874;48.228;11.684;2022-10-16T09:08:09;15.80;99.90
23403;DHT22;11874;48.228;11.684;2022-10-16T09:10:47;15.90;99.90
23403;DHT22;11874;48.228;11.684;2022-10-16T09:13:23;15.90;99.90
23403;DHT22;11874;48.228;11.684;2022-10-16T09:16:00;16.00;99.90
23403;DHT22;11874;48.228;11.684;2022-10-16T09:18:34;16.00;99.90
23403;DHT22;11874;48.228;11.684;2022-10-16T09:21:09;16.10;99.90
23403;DHT22;11874;48.228;11.684;2022-10-16T09:23:39;16.10;99.90
23403;DHT22;11874;48.228;11.684;2022-10-16T09:26:11;16.10;99.90
23403;DHT22;11874;48.228;11.684;2022-10-16T09:28:40;16.20;99.90
23403;DHT22;11874;48.228;11.684;2022-10-16T09:31:15;16.20;99.90
23403;DHT22;11874;48.228;11.684;2022-10-16T09:33:47;16.30;99.90
23403;DHT22;11874;48.228;11.684;2022-10-16T09:36:16;16.30;99.90
23403;DHT22;11874;48.228;11.684;2022-10-16T09:38:45;16.30;99.90
23403;DHT22;11874;48.228;11.684;2022-10-16T09:41:18;16.30;99.90
23403;DHT22;11874;48.228;11.684;2022-10-16T09:43:49;16.50;99.90
23403;DHT22;11874;48.228;11.684;2022-10-16T09:46:25;16.50;99.90
23403;DHT22;11874;48.228;11.684;2022-10-16T09:48:56;16.50;99.90
23403;DHT22;11874;48.228;11.684;2022-10-16T09:51:26;16.60;99.90
23403;DHT22;11874;48.228;11.684;2022-10-16T09:53:57;16.60;99.90
23403;DHT22;11874;48.228;11.684;2022-10-16T09:56:26;16.60;99.90
23403;DHT22;11874;48.228;11.684;2022-10-16T09:58:56;16.70;99.90
23403;DHT22;11874;48.228;11.684;2022-10-16T10:01:28;16.80;99.90
23403;DHT22;11874;48.228;11.684;2022-10-16T10:03:58;16.80;99.90
23403;DHT22;11874;48.228;11.684;2022-10-16T10:06:30;16.80;99.90
23403;DHT22;11874;48.228;11.684;2022-10-16T10:09:01;16.90;99.90
23403;DHT22;11874;48.228;11.684;2022-10-16T10:11:44;17.00;99.90
23403;DHT22;11874;48.228;11.684;2022-10-16T10:14:22;16.90;99.90
23403;DHT22;11874;48.228;11.684;2022-10-16T10:16:51;17.00;99.90
23403;DHT22;11874;48.228;11.684;2022-10-16T10:19:22;17.00;99.90
23403;DHT22;11874;48.228;11.684;2022-10-16T10:21:56;17.10;99.90
23403;DHT22;11874;48.228;11.684;2022-10-16T10:24:24;17.10;99.90
23403;DHT22;11874;48.228;11.684;2022-10-16T10:26:57;17.20;99.90
23403;DHT22;11874;48.228;11.684;2022-10-16T10:29:43;17.20;99.90
23403;DHT22;11874;48.228;11.684;2022-10-16T10:32:24;17.20;99.90
23403;DHT22;11874;48.228;11.684;2022-10-16T10:35:06;17.30;99.90
23403;DHT22;11874;48.228;11.684;2022-10-16T10:37:49;17.30;99.90
23403;DHT22;11874;48.228;11.684;2022-10-16T10:40:28;17.30;99.90
23403;DHT22;11874;48.228;11.684;2022-10-16T10:43:00;17.40;99.90
23403;DHT22;11874;48.228;11.684;2022-10-16T10:45:38;17.40;99.90
23403;DHT22;11874;48.228;11.684;2022-10-16T10:48:43;17.50;99.90
23403;DHT22;11874;48.228;11.684;2022-10-16T10:51:20;17.50;99.90
23403;DHT22;11874;48.228;11.684;2022-10-16T10:53:53;17.60;99.90
23403;DHT22;11874;48.228;11.684;2022-10-16T10:56:41;17.60;99.90
23403;DHT22;11874;48.228;11.684;2022-10-16T11:02:17;17.70;99.90
23403;DHT22;11874;48.228;11.684;2022-10-16T11:05:16;17.70;99.90
23403;DHT22;11874;48.228;11.684;2022-10-16T11:07:54;17.70;99.90
23403;DHT22;11874;48.228;11.684;2022-10-16T11:10:25;17.80;99.90
23403;DHT22;11874;48.228;11.684;2022-10-16T11:12:58;17.80;99.90
23403;DHT22;11874;48.228;11.684;2022-10-16T11:15:30;17.80;99.90
23403;DHT22;11874;48.228;11.684;2022-10-16T11:18:04;17.80;99.90
23403;DHT22;11874;48.228;11.684;2022-10-16T11:20:35;17.70;99.90
23403;DHT22;11874;48.228;11.684;2022-10-16T11:23:11;17.70;99.90
23403;DHT22;11874;48.228;11.684;2022-10-16T11:25:42;17.80;99.90
23403;DHT22;11874;48.228;11.684;2022-10-16T11:28:13;17.90;99.90
23403;DHT22;11874;48.228;11.684;2022-10-16T11:30:46;17.90;99.90
23403;DHT22;11874;48.228;11.684;2022-10-16T11:33:25;18.00;99.90
23403;DHT22;11874;48.228;11.684;2022-10-16T11:36:03;18.00;99.90
23403;DHT22;11874;48.228;11.684;2022-10-16T11:38:37;18.00;99.90
23403;DHT22;11874;48.228;11.684;2022-10-16T11:41:13;18.10;99.90
23403;DHT22;11874;48.228;11.684;2022-10-16T11:43:48;18.10;99.90
23403;DHT22;11874;48.228;11.684;2022-10-16T11:46:19;18.20;99.90
23403;DHT22;11874;48.228;11.684;2022-10-16T11:48:50;18.20;99.90
23403;DHT22;11874;48.228;11.684;2022-10-16T11:51:24;18.30;99.90
23403;DHT22;11874;48.228;11.684;2022-10-16T11:54:01;18.30;99.90
23403;DHT22;11874;48.228;11.684;2022-10-16T11:56:35;18.40;99.90
23403;DHT22;11874;48.228;11.684;2022-10-16T11:59:07;18.50;99.90
23403;DHT22;11874;48.228;11.684;2022-10-16T12:01:41;18.60;99.90
23403;DHT22;11874;48.228;11.684;2022-10-16T12:04:17;18.60;99.90
23403;DHT22;11874;48.228;11.684;2022-10-16T12:06:50;18.70;99.90
23403;DHT22;11874;48.228;11.684;2022-10-16T12:09:24;18.70;99.90
23403;DHT22;11874;48.228;11.684;2022-10-16T12:11:53;18.80;99.90
23403;DHT22;11874;48.228;11.684;2022-10-16T12:14:34;19.10;99.90
23403;DHT22;11874;48.228;11.684;2022-10-16T12:17:25;19.80;99.90
23403;DHT22;11874;48.228;11.684;2022-10-16T12:20:12;20.50;99.90
23403;DHT22;11874;48.228;11.684;2022-10-16T12:22:49;21.10;99.90
23403;DHT22;11874;48.228;11.684;2022-10-16T12:25:24;21.70;99.90
23403;DHT22;11874;48.228;11.684;2022-10-16T12:27:56;22.20;99.90
23403;DHT22;11874;48.228;11.684;2022-10-16T12:30:26;22.70;99.90
23403;DHT22;11874;48.228;11.684;2022-10-16T12:33:02;23.10;99.90
23403;DHT22;11874;48.228;11.684;2022-10-16T12:35:33;23.50;99.90
23403;DHT22;11874;48.228;11.684;2022-10-16T12:38:07;23.90;99.90
23403;DHT22;11874;48.228;11.684;2022-10-16T12:40:37;24.20;99.90
23403;DHT22;11874;48.228;11.684;2022-10-16T12:46:05;24.80;99.90
23403;DHT22;11874;48.228;11.684;2022-10-16T12:48:33;25.20;99.90
23403;DHT22;11874;48.228;11.684;2022-10-16T12:51:23;25.40;99.90
23403;DHT22;11874;48.228;11.684;2022-10-16T12:53:58;25.70;99.90
23403;DHT22;11874;48.228;11.684;2022-10-16T12:56:36;25.80;98.50
23403;DHT22;11874;48.228;11.684;2022-10-16T12:59:15;26.00;97.20
23403;DHT22;11874;48.228;11.684;2022-10-16T13:01:59;26.10;96.00
23403;DHT22;11874;48.228;11.684;2022-10-16T13:04:47;26.40;96.10
23403;DHT22;11874;48.228;11.684;2022-10-16T13:07:35;25.60;95.20
23403;DHT22;11874;48.228;11.684;2022-10-16T13:10:15;26.80;94.10
23403;DHT22;11874;48.228;11.684;2022-10-16T13:16:01;27.20;93.20
23403;DHT22;11874;48.228;11.684;2022-10-16T13:18:38;27.00;92.00
23403;DHT22;11874;48.228;11.684;2022-10-16T13:21:19;26.40;91.50
23403;DHT22;11874;48.228;11.684;2022-10-16T13:23:59;26.10;92.00
23403;DHT22;11874;48.228;11.684;2022-10-16T13:26:38;26.40;91.90
23403;DHT22;11874;48.228;11.684;2022-10-16T13:29:10;26.70;91.70
23403;DHT22;11874;48.228;11.684;2022-10-16T13:31:39;27.10;91.20
23403;DHT22;11874;48.228;11.684;2022-10-16T13:34:14;27.50;90.70
23403;DHT22;11874;48.228;11.684;2022-10-16T13:36:44;27.80;90.40
23403;DHT22;11874;48.228;11.684;2022-10-16T13:39:14;27.90;90.00
23403;DHT22;11874;48.228;11.684;2022-10-16T13:41:44;28.20;89.20
23403;DHT22;11874;48.228;11.684;2022-10-16T13:44:15;28.40;87.50
23403;DHT22;11874;48.228;11.684;2022-10-16T13:46:45;28.60;85.80
23403;DHT22;11874;48.228;11.684;2022-10-16T13:49:15;28.80;85.00
23403;DHT22;11874;48.228;11.684;2022-10-16T13:51:54;28.90;84.50
23403;DHT22;11874;48.228;11.684;2022-10-16T13:54:23;29.00;83.00
23403;DHT22;11874;48.228;11.684;2022-10-16T13:56:51;29.00;82.00
23403;DHT22;11874;48.228;11.684;2022-10-16T13:59:36;29.20;81.70
23403;DHT22;11874;48.228;11.684;2022-10-16T14:02:13;29.30;80.70
23403;DHT22;11874;48.228;11.684;2022-10-16T14:04:43;29.20;79.30
23403;DHT22;11874;48.228;11.684;2022-10-16T14:07:14;29.20;78.30
23403;DHT22;11874;48.228;11.684;2022-10-16T14:09:48;29.30;78.10
23403;DHT22;11874;48.228;11.684;2022-10-16T14:12:17;29.30;78.00
23403;DHT22;11874;48.228;11.684;2022-10-16T14:14:52;29.30;77.40
23403;DHT22;11874;48.228;11.684;2022-10-16T14:17:24;29.30;77.80
23403;DHT22;11874;48.228;11.684;2022-10-16T14:19:55;29.30;78.30
23403;DHT22;11874;48.228;11.684;2022-10-16T14:22:31;29.10;78.60
23403;DHT22;11874;48.228;11.684;2022-10-16T14:25:00;29.00;79.40
23403;DHT22;11874;48.228;11.684;2022-10-16T14:27:34;28.80;79.50
23403;DHT22;11874;48.228;11.684;2022-10-16T14:30:16;28.50;80.00
23403;DHT22;11874;48.228;11.684;2022-10-16T14:32:54;28.20;80.40
23403;DHT22;11874;48.228;11.684;2022-10-16T14:35:25;27.90;81.40
23403;DHT22;11874;48.228;11.684;2022-10-16T14:37:54;27.70;82.60
23403;DHT22;11874;48.228;11.684;2022-10-16T14:40:25;27.50;83.30
23403;DHT22;11874;48.228;11.684;2022-10-16T14:42:53;27.20;84.10
23403;DHT22;11874;48.228;11.684;2022-10-16T14:45:26;26.90;85.00
23403;DHT22;11874;48.228;11.684;2022-10-16T14:47:57;26.60;85.80
23403;DHT22;11874;48.228;11.684;2022-10-16T14:50:25;26.20;86.50
23403;DHT22;11874;48.228;11.684;2022-10-16T14:52:53;25.80;87.40
23403;DHT22;11874;48.228;11.684;2022-10-16T14:55:21;25.70;88.20
23403;DHT22;11874;48.228;11.684;2022-10-16T14:57:50;25.30;89.10
23403;DHT22;11874;48.228;11.684;2022-10-16T15:00:24;25.00;90.00
23403;DHT22;11874;48.228;11.684;2022-10-16T15:02:52;24.60;90.50
23403;DHT22;11874;48.228;11.684;2022-10-16T15:05:21;24.40;91.10
23403;DHT22;11874;48.228;11.684;2022-10-16T15:07:50;24.10;91.70
23403;DHT22;11874;48.228;11.684;2022-10-16T15:10:22;23.90;92.10
23403;DHT22;11874;48.228;11.684;2022-10-16T15:12:51;23.70;92.60
23403;DHT22;11874;48.228;11.684;2022-10-16T15:15:30;23.50;93.40
23403;DHT22;11874;48.228;11.684;2022-10-16T15:18:00;23.30;93.40
23403;DHT22;11874;48.228;11.684;2022-10-16T15:20:31;23.10;93.80
23403;DHT22;11874;48.228;11.684;2022-10-16T15:23:01;22.90;94.30
23403;DHT22;11874;48.228;11.684;2022-10-16T15:25:35;22.90;94.90
23403;DHT22;11874;48.228;11.684;2022-10-16T15:28:06;23.30;96.00
23403;DHT22;11874;48.228;11.684;2022-10-16T15:30:36;22.60;95.70
23403;DHT22;11874;48.228;11.684;2022-10-16T15:33:04;22.40;96.00
23403;DHT22;11874;48.228;11.684;2022-10-16T15:35:33;22.10;96.70
23403;DHT22;11874;48.228;11.684;2022-10-16T15:38:01;22.30;96.60
23403;DHT22;11874;48.228;11.684;2022-10-16T15:40:28;22.10;96.80
23403;DHT22;11874;48.228;11.684;2022-10-16T15:42:56;22.30;97.80
23403;DHT22;11874;48.228;11.684;2022-10-16T15:45:24;22.60;98.30
23403;DHT22;11874;48.228;11.684;2022-10-16T15:47:53;21.90;97.60
23403;DHT22;11874;48.228;11.684;2022-10-16T15:50:21;21.80;97.90
23403;DHT22;11874;48.228;11.684;2022-10-16T15:52:50;21.70;98.30